createdAt,value
2023-09-20T00:02:05.665Z,11.52
2023-09-20T00:04:34.322Z,12.10
2023-09-20T00:07:02.025Z,11.13
2023-09-20T00:09:31.723Z,11.02
2023-09-20T00:11:59.482Z,11.68
2023-09-20T00:14:30.602Z,11.93
2023-09-20T00:16:58.764Z,11.13
2023-09-20T00:19:27.028Z,11.35
2023-09-20T00:21:54.715Z,11.43
2023-09-20T00:24:22.402Z,11.13
2023-09-20T00:26:50.097Z,11.38
2023-09-20T00:29:17.840Z,11.15
2023-09-20T00:31:47.008Z,10.80
2023-09-20T00:34:14.833Z,11.40
2023-09-20T00:36:42.663Z,11.18
2023-09-20T00:39:11.335Z,10.85
2023-09-20T00:41:39.066Z,11.23
2023-09-20T00:44:07.274Z,11.23
2023-09-20T00:46:35.049Z,10.90
2023-09-20T00:49:04.642Z,11.02
2023-09-20T00:51:32.342Z,11.75
2023-09-20T00:54:04.604Z,11.40
2023-09-20T00:56:32.652Z,10.43
2023-09-20T00:59:06.084Z,10.55
2023-09-20T01:01:35.172Z,10.52
2023-09-20T01:04:06.582Z,11.50
2023-09-20T01:06:35.425Z,11.35
2023-09-20T01:09:03.649Z,11.13
2023-09-20T01:11:32.117Z,11.13
2023-09-20T01:14:00.797Z,10.73
2023-09-20T01:16:28.835Z,10.57
2023-09-20T01:18:56.721Z,11.73
2023-09-20T01:21:26.044Z,11.02
2023-09-20T01:23:55.463Z,12.10
2023-09-20T01:26:23.323Z,12.10
2023-09-20T01:28:51.124Z,11.60
2023-09-20T01:31:18.914Z,11.90
2023-09-20T01:33:46.711Z,11.43
2023-09-20T01:36:14.952Z,11.23
2023-09-20T01:38:43.761Z,11.68
2023-09-20T01:41:13.534Z,12.45
2023-09-20T01:43:42.391Z,11.75
2023-09-20T01:46:10.440Z,10.63
2023-09-20T01:48:39.145Z,11.30
2023-09-20T01:51:07.345Z,11.60
2023-09-20T01:53:35.161Z,11.45
2023-09-20T01:56:04.271Z,11.25
2023-09-20T01:58:33.571Z,11.10
2023-09-20T02:01:01.431Z,11.15
2023-09-20T02:03:32.914Z,11.10
2023-09-20T02:06:01.133Z,11.18
2023-09-20T02:08:28.929Z,10.45
2023-09-20T02:10:57.847Z,11.10
2023-09-20T02:13:25.671Z,11.05
2023-09-20T02:15:55.465Z,11.35
2023-09-20T02:18:23.907Z,11.70
2023-09-20T02:20:51.782Z,11.18
2023-09-20T02:23:20.025Z,12.68
2023-09-20T02:25:49.531Z,10.43
2023-09-20T02:28:17.967Z,11.15
2023-09-20T02:30:46.597Z,10.70
2023-09-20T02:33:19.660Z,10.93
2023-09-20T02:35:47.471Z,10.38
2023-09-20T02:38:15.263Z,10.82
2023-09-20T02:40:46.528Z,10.48
2023-09-20T02:43:14.349Z,11.10
2023-09-20T02:45:46.461Z,10.85
2023-09-20T02:50:45.473Z,11.02
2023-09-20T02:53:13.627Z,10.35
2023-09-20T02:55:41.994Z,10.23
2023-09-20T02:58:10.270Z,10.75
2023-09-20T03:00:40.088Z,11.07
2023-09-20T03:03:09.050Z,10.50
2023-09-20T03:05:39.336Z,10.43
2023-09-20T03:08:12.447Z,10.55
2023-09-20T03:10:42.916Z,10.52
2023-09-20T03:13:17.615Z,10.65
2023-09-20T03:15:46.798Z,10.25
2023-09-20T03:18:15.936Z,10.55
2023-09-20T03:20:49.487Z,10.93
2023-09-20T03:23:17.403Z,10.30
2023-09-20T03:25:45.288Z,10.43
2023-09-20T03:28:13.093Z,11.10
2023-09-20T03:30:41.395Z,10.70
2023-09-20T03:33:10.982Z,9.90
2023-09-20T03:35:39.248Z,10.57
2023-09-20T03:38:10.254Z,10.63
2023-09-20T03:40:38.742Z,10.80
2023-09-20T03:43:08.859Z,10.02
2023-09-20T03:45:36.872Z,10.80
2023-09-20T03:48:07.007Z,10.43
2023-09-20T03:50:34.965Z,9.85
2023-09-20T03:53:02.928Z,10.15
2023-09-20T03:55:34.386Z,10.63
2023-09-20T03:58:02.191Z,10.23
2023-09-20T04:00:32.568Z,10.50
2023-09-20T04:03:02.547Z,11.20
2023-09-20T04:08:49.791Z,10.57
2023-09-20T04:08:51.469Z,11.27
2023-09-20T04:11:24.043Z,10.60
2023-09-20T04:13:59.383Z,9.93
2023-09-20T04:16:29.228Z,10.50
2023-09-20T04:19:11.890Z,10.63
2023-09-20T04:21:57.596Z,10.70
2023-09-20T04:24:27.737Z,10.70
2023-09-20T04:27:45.100Z,11.45
2023-09-20T04:30:15.745Z,10.25
2023-09-20T05:04:53.487Z,9.88
2023-09-20T05:07:38.702Z,10.27
2023-09-20T05:10:21.078Z,10.85
2023-09-20T05:24:44.838Z,11.32
2023-09-20T05:27:15.978Z,9.80
2023-09-20T05:29:45.623Z,10.27
2023-09-20T05:32:16.362Z,11.75
2023-09-20T05:34:50.801Z,10.57
2023-09-20T05:37:23.919Z,10.02
2023-09-20T05:40:25.859Z,10.20
2023-09-20T05:43:08.599Z,12.30
2023-09-20T05:45:48.354Z,10.55
2023-09-20T05:52:31.361Z,11.23
2023-09-20T05:55:17.926Z,10.82
2023-09-20T05:57:49.939Z,17.17
2023-09-20T06:00:26.894Z,10.68
2023-09-20T06:02:56.184Z,10.18
2023-09-20T06:05:26.118Z,11.02
2023-09-20T06:08:02.586Z,10.45
2023-09-20T06:10:33.980Z,10.45
2023-09-20T06:13:02.585Z,10.47
2023-09-20T06:19:19.950Z,10.80
2023-09-20T06:21:56.722Z,10.90
2023-09-20T06:24:33.891Z,10.70
2023-09-20T06:27:12.249Z,10.50
2023-09-20T06:37:17.484Z,10.82
2023-09-20T06:40:29.936Z,10.85
2023-09-20T06:44:06.902Z,12.32
2023-09-20T06:47:16.853Z,11.38
2023-09-20T06:50:01.801Z,11.82
2023-09-20T06:57:10.910Z,11.00
2023-09-20T06:59:54.437Z,11.23
2023-09-20T07:10:24.371Z,11.35
2023-09-20T07:13:15.157Z,11.65
2023-09-20T07:16:03.092Z,10.80
2023-09-20T07:20:04.809Z,11.70
2023-09-20T07:47:24.565Z,12.20
2023-09-20T07:49:54.545Z,11.98
2023-09-20T07:52:24.552Z,13.00
2023-09-20T07:54:52.505Z,11.52
2023-09-20T07:57:22.626Z,12.48
2023-09-20T07:59:55.059Z,13.07
2023-09-20T08:02:23.044Z,12.40
2023-09-20T08:04:50.968Z,12.70
2023-09-20T08:07:20.329Z,12.38
2023-09-20T08:09:56.047Z,12.43
2023-09-20T08:12:24.112Z,12.05
2023-09-20T08:14:53.353Z,12.43
2023-09-20T08:17:38.740Z,12.35
2023-09-20T08:20:11.955Z,12.98
2023-09-20T08:22:59.150Z,12.27
2023-09-20T08:25:44.206Z,11.95
2023-09-20T08:28:29.418Z,12.68
2023-09-20T08:31:16.208Z,13.13
2023-09-20T08:34:01.502Z,12.38
2023-09-20T08:36:52.952Z,12.98
2023-09-20T08:39:38.234Z,12.50
2023-09-20T08:42:23.446Z,13.13
2023-09-20T08:45:13.115Z,12.75
2023-09-20T08:48:20.818Z,12.45
2023-09-20T08:51:06.542Z,12.57
2023-09-20T08:53:51.813Z,13.73
2023-09-20T08:56:37.307Z,12.90
2023-09-20T08:59:23.178Z,12.88
2023-09-20T09:01:51.218Z,12.85
2023-09-20T09:04:20.943Z,12.75
2023-09-20T09:06:49.073Z,12.55
2023-09-20T09:09:17.225Z,12.48
2023-09-20T09:11:47.240Z,12.10
2023-09-20T09:14:15.617Z,12.48
2023-09-20T09:16:44.098Z,12.90
2023-09-20T09:19:12.088Z,12.20
2023-09-20T09:21:41.474Z,12.10
2023-09-20T09:24:09.923Z,12.65
2023-09-20T09:26:38.231Z,12.05
2023-09-20T09:29:08.444Z,13.57
2023-09-20T09:31:38.210Z,12.20
2023-09-20T09:34:08.673Z,12.65
2023-09-20T09:36:39.291Z,12.85
2023-09-20T09:39:32.150Z,12.38
2023-09-20T09:42:02.287Z,12.65
2023-09-20T09:44:30.205Z,13.35
2023-09-20T09:46:58.172Z,12.68
2023-09-20T09:49:28.568Z,12.90
2023-09-20T09:51:56.636Z,13.55
2023-09-20T09:54:25.935Z,13.27
2023-09-20T09:56:53.840Z,13.05
2023-09-20T09:59:21.778Z,12.65
2023-09-20T10:01:51.921Z,13.68
2023-09-20T10:04:23.091Z,13.00
2023-09-20T10:06:56.386Z,11.98
2023-09-20T10:09:27.354Z,13.35
2023-09-20T10:11:55.216Z,13.80
2023-09-20T10:14:23.572Z,13.18
2023-09-20T10:16:52.233Z,13.55
2023-09-20T10:19:20.072Z,12.85
2023-09-20T10:22:03.784Z,12.55
2023-09-20T10:24:45.170Z,14.40
2023-09-20T10:27:17.919Z,13.98
2023-09-20T10:30:00.698Z,13.77
2023-09-20T10:32:34.000Z,12.68
2023-09-20T10:35:22.776Z,14.40
2023-09-20T10:38:24.087Z,13.65
2023-09-20T10:41:04.417Z,13.43
2023-09-20T10:43:50.040Z,13.18
2023-09-20T10:46:19.974Z,13.40
2023-09-20T10:48:52.130Z,17.02
2023-09-20T10:51:42.852Z,12.60
2023-09-20T10:54:23.662Z,13.32
2023-09-20T10:57:04.360Z,13.77
2023-09-20T10:59:35.618Z,13.82
2023-09-20T11:02:06.647Z,13.88
2023-09-20T11:04:35.315Z,13.90
2023-09-20T11:07:03.738Z,13.52
2023-09-20T11:09:34.897Z,13.70
2023-09-20T11:12:12.989Z,12.70
2023-09-20T11:14:42.746Z,13.38
2023-09-20T11:17:15.206Z,14.13
2023-09-20T11:19:43.238Z,13.57
2023-09-20T11:22:11.173Z,13.60
2023-09-20T11:24:40.607Z,13.77
2023-09-20T11:27:11.703Z,13.38
2023-09-20T11:29:41.878Z,13.98
2023-09-20T11:32:12.642Z,13.75
2023-09-20T11:34:49.171Z,13.85
2023-09-20T11:37:18.905Z,14.10
2023-09-20T11:39:47.886Z,13.95
2023-09-20T11:42:29.542Z,13.90
2023-09-20T11:45:07.296Z,14.15
2023-09-20T11:47:45.534Z,13.60
2023-09-20T11:50:15.304Z,13.98
2023-09-20T11:52:45.467Z,13.27
2023-09-20T11:55:14.900Z,13.68
2023-09-20T11:57:46.493Z,13.68
2023-09-20T12:00:17.963Z,13.40
2023-09-20T12:02:46.291Z,14.80
2023-09-20T12:05:14.475Z,13.57
2023-09-20T12:07:44.091Z,14.35
2023-09-20T12:10:12.051Z,13.82
2023-09-20T12:12:40.104Z,13.70
2023-09-20T12:15:10.916Z,13.55
2023-09-20T12:17:38.670Z,13.88
2023-09-20T12:20:07.863Z,14.25
2023-09-20T12:22:35.528Z,14.13
2023-09-20T12:25:03.230Z,13.88
2023-09-20T12:27:30.897Z,13.73
2023-09-20T12:29:58.586Z,14.63
2023-09-20T12:32:28.042Z,14.27
2023-09-20T12:34:56.380Z,14.18
2023-09-20T12:37:24.464Z,13.60
2023-09-20T12:39:53.976Z,14.32
2023-09-20T12:42:22.046Z,13.75
2023-09-20T12:44:51.025Z,14.07
2023-09-20T12:47:21.064Z,14.02
2023-09-20T12:49:50.150Z,14.65
2023-09-20T12:52:18.620Z,13.98
2023-09-20T12:54:46.311Z,13.73
2023-09-20T12:57:15.481Z,14.05
2023-09-20T12:59:43.249Z,13.95
2023-09-20T13:02:11.419Z,13.43
2023-09-20T13:04:39.243Z,13.85
2023-09-20T13:07:08.574Z,12.88
2023-09-20T13:09:36.987Z,13.32
2023-09-20T13:12:05.037Z,13.88
2023-09-20T13:14:32.714Z,13.07
2023-09-20T13:17:01.988Z,14.13
2023-09-20T13:19:29.655Z,13.98
2023-09-20T13:22:00.552Z,13.80
2023-09-20T13:24:30.671Z,13.27
2023-09-20T13:26:58.418Z,14.00
2023-09-20T13:29:28.933Z,14.13
2023-09-20T13:31:56.913Z,13.75
2023-09-20T13:34:26.366Z,13.45
2023-09-20T13:36:54.156Z,13.43
2023-09-20T13:39:21.861Z,14.18
2023-09-20T13:41:51.004Z,13.38
2023-09-20T13:44:20.579Z,13.48
2023-09-20T13:46:48.425Z,14.63
2023-09-20T13:49:17.299Z,14.02
2023-09-20T13:51:45.242Z,13.32
2023-09-20T13:54:13.966Z,13.98
2023-09-20T13:56:41.911Z,15.02
2023-09-20T13:59:11.469Z,14.07
2023-09-20T14:01:40.647Z,15.68
2023-09-20T14:04:10.851Z,13.60
2023-09-20T14:06:39.217Z,14.55
2023-09-20T14:09:09.334Z,13.40
2023-09-20T14:11:37.064Z,13.07
2023-09-20T14:14:06.085Z,14.00
2023-09-20T14:16:36.023Z,13.57
2023-09-20T14:19:03.795Z,14.68
2023-09-20T14:21:32.393Z,14.02
2023-09-20T14:24:00.341Z,14.38
2023-09-20T14:26:29.013Z,14.18
2023-09-20T14:28:56.757Z,13.98
2023-09-20T14:31:24.479Z,14.00
2023-09-20T14:33:53.561Z,14.65
2023-09-20T14:36:22.764Z,13.13
2023-09-20T14:38:50.508Z,13.82
2023-09-20T14:42:24.790Z,13.00
2023-09-20T14:44:41.281Z,13.20
2023-09-20T14:47:09.137Z,13.63
2023-09-20T14:49:38.352Z,14.13
2023-09-20T14:52:06.495Z,13.35
2023-09-20T14:54:36.795Z,13.07
2023-09-20T14:57:04.721Z,13.20
2023-09-20T14:59:33.789Z,13.60
2023-09-20T15:02:01.821Z,13.75
2023-09-20T15:04:32.712Z,14.13
2023-09-20T15:07:03.061Z,13.30
2023-09-20T15:09:32.004Z,14.90
2023-09-20T15:12:00.506Z,13.73
2023-09-20T15:14:30.993Z,12.57
2023-09-20T15:17:02.701Z,12.95
2023-09-20T15:19:31.504Z,13.93
2023-09-20T15:22:00.030Z,13.43
2023-09-20T15:24:29.360Z,14.57
2023-09-20T15:26:57.854Z,13.05
2023-09-20T15:29:25.877Z,13.98
2023-09-20T15:31:55.028Z,14.68
2023-09-20T15:34:23.458Z,13.32
2023-09-20T15:36:51.280Z,14.07
2023-09-20T15:39:19.286Z,14.07
2023-09-20T15:41:48.819Z,14.43
2023-09-20T15:44:16.742Z,13.93
2023-09-20T15:46:46.276Z,14.30
2023-09-20T15:49:14.535Z,14.20
2023-09-20T15:51:42.332Z,13.35
2023-09-20T15:54:10.156Z,12.88
2023-09-20T15:56:40.081Z,13.45
2023-09-20T15:59:09.387Z,14.07
2023-09-20T16:01:37.716Z,13.25
2023-09-20T16:04:08.672Z,13.27
2023-09-20T16:06:47.220Z,13.07
2023-09-20T16:09:15.875Z,13.60
2023-09-20T16:11:47.713Z,13.65
2023-09-20T16:14:17.908Z,13.02
2023-09-20T16:16:45.675Z,13.18
2023-09-20T16:19:13.618Z,13.23
2023-09-20T16:21:41.630Z,12.85
2023-09-20T16:24:09.453Z,12.90
2023-09-20T16:26:38.703Z,13.38
2023-09-20T16:29:06.478Z,13.25
2023-09-20T16:31:35.586Z,13.70
2023-09-20T16:34:03.376Z,13.77
2023-09-20T16:36:31.114Z,13.55
2023-09-20T16:38:58.846Z,13.95
2023-09-20T16:41:26.603Z,14.38
2023-09-20T16:43:54.317Z,14.07
2023-09-20T16:46:22.009Z,13.35
2023-09-20T16:48:51.156Z,14.02
2023-09-20T16:51:18.841Z,13.50
2023-09-20T16:53:46.653Z,13.05
2023-09-20T16:56:16.572Z,12.90
2023-09-20T16:58:44.822Z,13.48
2023-09-20T17:01:17.659Z,13.43
2023-09-20T17:03:45.682Z,13.55
2023-09-20T17:06:14.912Z,14.60
2023-09-20T17:08:42.626Z,14.25
2023-09-20T17:11:11.201Z,13.43
2023-09-20T17:13:39.675Z,13.38
2023-09-20T17:16:08.430Z,13.93
2023-09-20T17:18:36.295Z,13.32
2023-09-20T17:21:05.188Z,14.55
2023-09-20T17:23:34.322Z,14.00
2023-09-20T17:26:02.055Z,14.00
2023-09-20T17:28:29.750Z,14.93
2023-09-20T17:31:03.208Z,14.35
2023-09-20T17:33:31.049Z,14.85
2023-09-20T17:36:02.307Z,13.35
2023-09-20T17:38:30.254Z,13.70
2023-09-20T17:41:01.155Z,13.63
2023-09-20T17:43:30.528Z,13.90
2023-09-20T17:45:59.848Z,13.60
2023-09-20T17:48:27.739Z,13.90
2023-09-20T17:50:55.512Z,14.20
2023-09-20T17:53:23.430Z,12.68
2023-09-20T17:55:52.616Z,13.13
2023-09-20T17:58:21.719Z,13.60
2023-09-20T18:00:49.851Z,12.60
2023-09-20T18:03:17.707Z,13.90
2023-09-20T18:05:45.518Z,15.63
2023-09-20T18:08:13.214Z,20.27
2023-09-20T18:10:40.945Z,24.05
2023-09-20T18:13:08.653Z,18.58
2023-09-20T18:15:37.659Z,18.42
2023-09-20T18:18:06.353Z,15.32
2023-09-20T18:20:34.185Z,17.23
2023-09-20T18:23:02.936Z,16.80
2023-09-20T18:25:30.625Z,15.63
2023-09-20T18:27:58.363Z,15.57
2023-09-20T18:30:26.137Z,15.63
2023-09-20T18:32:57.039Z,14.75
2023-09-20T18:35:26.198Z,13.80
2023-09-20T18:37:54.091Z,15.75
2023-09-20T18:40:21.764Z,14.05
2023-09-20T18:42:49.456Z,14.77
2023-09-20T18:45:17.241Z,13.85
2023-09-20T18:47:46.297Z,14.77
2023-09-20T18:50:18.716Z,14.90
2023-09-20T18:52:48.049Z,15.43
2023-09-20T18:55:18.654Z,15.50
2023-09-20T18:57:51.861Z,21.48
2023-09-20T19:00:20.073Z,13.90
2023-09-20T19:02:49.241Z,15.55
2023-09-20T19:05:18.925Z,14.40
2023-09-20T19:07:47.999Z,13.70
2023-09-20T19:10:17.102Z,13.93
2023-09-20T19:12:45.333Z,12.77
2023-09-20T19:15:15.098Z,12.98
2023-09-20T19:17:44.220Z,13.40
2023-09-20T19:20:14.323Z,13.73
2023-09-20T19:22:44.785Z,13.07
2023-09-20T19:25:14.131Z,12.77
2023-09-20T19:27:42.539Z,12.52
2023-09-20T19:30:11.448Z,13.75
2023-09-20T19:32:40.189Z,12.98
2023-09-20T19:35:10.159Z,13.07
2023-09-20T19:37:37.826Z,12.98
2023-09-20T19:40:17.419Z,13.23
2023-09-20T19:42:46.795Z,13.23
2023-09-20T19:45:16.468Z,13.20
2023-09-20T19:47:45.392Z,13.52
2023-09-20T19:50:15.775Z,13.80
2023-09-20T19:52:44.237Z,13.40
2023-09-20T19:55:13.908Z,13.20
2023-09-20T19:57:43.029Z,12.70
2023-09-20T20:00:20.220Z,14.23
2023-09-20T20:02:49.911Z,13.77
2023-09-20T20:05:18.498Z,14.00
2023-09-20T20:07:48.008Z,13.60
2023-09-20T20:10:17.213Z,14.52
2023-09-20T20:12:45.779Z,14.15
2023-09-20T20:15:13.831Z,13.93
2023-09-20T20:17:44.809Z,14.98
2023-09-20T20:20:21.585Z,14.10
2023-09-20T20:22:54.165Z,12.80
2023-09-20T20:25:26.433Z,14.07
2023-09-20T20:30:22.165Z,13.02
2023-09-20T20:32:51.149Z,13.68
2023-09-20T20:35:19.270Z,13.73
2023-09-20T20:37:47.609Z,13.02
2023-09-20T20:40:16.794Z,13.63
2023-09-20T20:42:46.040Z,13.63
2023-09-20T20:45:19.861Z,14.07
2023-09-20T20:47:48.531Z,13.15
2023-09-20T20:50:17.822Z,12.88
2023-09-20T20:52:49.124Z,13.38
2023-09-20T20:55:20.900Z,12.30
2023-09-20T20:57:51.497Z,14.40
2023-09-20T21:00:25.104Z,13.15
2023-09-20T21:02:54.431Z,13.30
2023-09-20T21:05:25.067Z,12.95
2023-09-20T21:07:53.708Z,13.30
2023-09-20T21:10:22.499Z,14.10
2023-09-20T21:12:52.383Z,13.10
2023-09-20T21:15:22.616Z,13.48
2023-09-20T21:17:51.872Z,13.38
2023-09-20T21:20:25.025Z,13.27
2023-09-20T21:22:57.296Z,13.77
2023-09-20T21:25:28.222Z,13.57
2023-09-20T21:27:58.387Z,14.07
2023-09-20T21:30:27.297Z,14.43
2023-09-20T21:32:56.621Z,13.88
2023-09-20T21:35:24.672Z,13.57
2023-09-20T21:37:55.793Z,13.50
2023-09-20T21:40:24.251Z,14.18
2023-09-20T21:42:52.970Z,14.00
2023-09-20T21:45:25.603Z,13.23
2023-09-20T21:47:53.810Z,13.65
2023-09-20T21:50:23.275Z,12.95
2023-09-20T21:52:53.959Z,13.07
2023-09-20T21:55:22.157Z,13.63
2023-09-20T21:57:50.148Z,13.80
2023-09-20T22:00:30.794Z,12.73
2023-09-20T22:03:01.929Z,12.93
2023-09-20T22:05:30.214Z,13.00
2023-09-20T22:08:02.934Z,13.15
2023-09-20T22:10:39.439Z,12.90
2023-09-20T22:13:09.547Z,13.15
2023-09-20T22:15:38.357Z,13.02
2023-09-20T22:18:18.953Z,12.93
2023-09-20T22:20:51.375Z,13.40
2023-09-20T22:23:20.386Z,12.95
2023-09-20T22:25:49.235Z,12.57
2023-09-20T22:28:19.003Z,13.52
2023-09-20T22:30:47.898Z,13.55
2023-09-20T22:33:17.942Z,12.75
2023-09-20T22:35:51.681Z,13.82
2023-09-20T22:38:29.372Z,13.32
2023-09-20T22:40:57.089Z,12.85
2023-09-20T22:43:26.047Z,13.48
2023-09-20T22:45:53.796Z,12.10
2023-09-20T22:48:24.726Z,12.93
2023-09-20T22:50:54.015Z,13.68
2023-09-20T22:53:24.796Z,12.98
2023-09-20T22:55:53.289Z,12.90
2023-09-20T22:58:22.017Z,13.00
2023-09-20T23:00:51.876Z,12.50
2023-09-20T23:03:21.643Z,12.73
2023-09-20T23:05:52.054Z,13.18
2023-09-20T23:08:20.515Z,13.75
2023-09-20T23:10:51.892Z,13.60
2023-09-20T23:13:22.507Z,12.70
2023-09-20T23:15:53.839Z,13.55
2023-09-20T23:18:23.208Z,13.02
2023-09-20T23:20:53.710Z,13.25
2023-09-20T23:23:25.180Z,12.65
2023-09-20T23:25:54.097Z,12.27
2023-09-20T23:28:24.262Z,14.32
2023-09-20T23:30:59.143Z,12.90
2023-09-20T23:33:29.001Z,12.95
2023-09-20T23:35:58.711Z,13.13
2023-09-20T23:38:29.592Z,13.20
2023-09-20T23:41:06.239Z,12.63
2023-09-20T23:43:35.022Z,13.30
2023-09-20T23:46:09.127Z,13.23
2023-09-20T23:48:38.514Z,13.20
2023-09-20T23:51:08.730Z,14.18
2023-09-20T23:53:37.301Z,13.45
2023-09-20T23:56:05.899Z,13.20
2023-09-20T23:58:33.631Z,13.48
